sensor_id;sensor_type;location;lat;lon;timestamp;P1;durP1;ratioP1;P2;durP2;ratioP2
19509;SDS011;9896;42.486;26.506;2023-10-09T00:00:52;5.07;;;1.37;;
19509;SDS011;9896;42.486;26.506;2023-10-09T00:03:20;11.20;;;1.40;;
19509;SDS011;9896;42.486;26.506;2023-10-09T00:05:49;2.87;;;1.00;;
19509;SDS011;9896;42.486;26.506;2023-10-09T00:08:18;1.20;;;0.80;;
19509;SDS011;9896;42.486;26.506;2023-10-09T00:10:55;1.93;;;1.00;;
19509;SDS011;9896;42.486;26.506;2023-10-09T00:13:23;3.53;;;1.10;;
19509;SDS011;9896;42.486;26.506;2023-10-09T00:16:00;4.03;;;0.93;;
19509;SDS011;9896;42.486;26.506;2023-10-09T00:18:34;2.40;;;1.10;;
19509;SDS011;9896;42.486;26.506;2023-10-09T00:20:59;1.83;;;1.10;;
19509;SDS011;9896;42.486;26.506;2023-10-09T00:23:41;5.57;;;1.13;;
19509;SDS011;9896;42.486;26.506;2023-10-09T00:26:07;2.20;;;0.97;;
19509;SDS011;9896;42.486;26.506;2023-10-09T00:28:58;2.73;;;0.97;;
19509;SDS011;9896;42.486;26.506;2023-10-09T00:31:23;2.13;;;0.77;;
19509;SDS011;9896;42.486;26.506;2023-10-09T00:33:55;3.20;;;1.10;;
19509;SDS011;9896;42.486;26.506;2023-10-09T00:36:20;2.63;;;0.97;;
19509;SDS011;9896;42.486;26.506;2023-10-09T00:38:53;4.10;;;0.93;;
19509;SDS011;9896;42.486;26.506;2023-10-09T00:41:19;4.57;;;1.20;;
19509;SDS011;9896;42.486;26.506;2023-10-09T00:43:50;1.83;;;1.00;;
19509;SDS011;9896;42.486;26.506;2023-10-09T00:46:19;4.63;;;0.97;;
19509;SDS011;9896;42.486;26.506;2023-10-09T00:48:48;1.60;;;1.20;;
19509;SDS011;9896;42.486;26.506;2023-10-09T00:51:17;5.70;;;1.30;;
19509;SDS011;9896;42.486;26.506;2023-10-09T00:53:47;1.10;;;0.70;;
19509;SDS011;9896;42.486;26.506;2023-10-09T00:56:17;2.87;;;1.03;;
19509;SDS011;9896;42.486;26.506;2023-10-09T00:58:58;1.83;;;1.13;;
19509;SDS011;9896;42.486;26.506;2023-10-09T01:01:33;1.60;;;1.00;;
19509;SDS011;9896;42.486;26.506;2023-10-09T01:04:05;1.93;;;1.20;;
19509;SDS011;9896;42.486;26.506;2023-10-09T01:06:46;4.30;;;1.33;;
19509;SDS011;9896;42.486;26.506;2023-10-09T01:09:29;2.70;;;1.00;;
19509;SDS011;9896;42.486;26.506;2023-10-09T01:12:01;1.97;;;1.00;;
19509;SDS011;9896;42.486;26.506;2023-10-09T01:14:27;4.23;;;0.80;;
19509;SDS011;9896;42.486;26.506;2023-10-09T01:16:52;2.20;;;0.93;;
19509;SDS011;9896;42.486;26.506;2023-10-09T01:19:19;1.90;;;0.90;;
19509;SDS011;9896;42.486;26.506;2023-10-09T01:21:49;2.67;;;1.03;;
19509;SDS011;9896;42.486;26.506;2023-10-09T01:24:15;2.00;;;1.03;;
19509;SDS011;9896;42.486;26.506;2023-10-09T01:26:42;3.17;;;1.00;;
19509;SDS011;9896;42.486;26.506;2023-10-09T01:29:15;1.60;;;0.90;;
19509;SDS011;9896;42.486;26.506;2023-10-09T01:31:48;2.27;;;1.00;;
19509;SDS011;9896;42.486;26.506;2023-10-09T01:34:26;1.00;;;0.90;;
19509;SDS011;9896;42.486;26.506;2023-10-09T01:37:11;1.40;;;0.93;;
19509;SDS011;9896;42.486;26.506;2023-10-09T01:39:43;2.43;;;0.90;;
19509;SDS011;9896;42.486;26.506;2023-10-09T01:42:10;2.87;;;1.10;;
19509;SDS011;9896;42.486;26.506;2023-10-09T01:44:36;2.07;;;1.20;;
19509;SDS011;9896;42.486;26.506;2023-10-09T01:47:08;3.03;;;1.00;;
19509;SDS011;9896;42.486;26.506;2023-10-09T01:49:34;4.77;;;0.87;;
19509;SDS011;9896;42.486;26.506;2023-10-09T01:52:01;3.23;;;1.00;;
19509;SDS011;9896;42.486;26.506;2023-10-09T01:54:39;2.10;;;1.00;;
19509;SDS011;9896;42.486;26.506;2023-10-09T01:57:08;5.93;;;1.10;;
19509;SDS011;9896;42.486;26.506;2023-10-09T01:59:41;4.53;;;1.17;;
19509;SDS011;9896;42.486;26.506;2023-10-09T02:02:12;3.30;;;1.20;;
19509;SDS011;9896;42.486;26.506;2023-10-09T02:04:57;1.77;;;1.20;;
19509;SDS011;9896;42.486;26.506;2023-10-09T02:07:49;3.27;;;1.17;;
19509;SDS011;9896;42.486;26.506;2023-10-09T02:10:19;1.60;;;1.20;;
19509;SDS011;9896;42.486;26.506;2023-10-09T02:12:56;2.27;;;1.30;;
19509;SDS011;9896;42.486;26.506;2023-10-09T02:15:37;2.93;;;1.13;;
19509;SDS011;9896;42.486;26.506;2023-10-09T02:18:06;1.47;;;1.10;;
19509;SDS011;9896;42.486;26.506;2023-10-09T02:23:29;2.40;;;1.13;;
19509;SDS011;9896;42.486;26.506;2023-10-09T02:26:16;1.67;;;1.13;;
19509;SDS011;9896;42.486;26.506;2023-10-09T02:28:50;1.97;;;1.10;;
19509;SDS011;9896;42.486;26.506;2023-10-09T02:31:27;2.07;;;1.20;;
19509;SDS011;9896;42.486;26.506;2023-10-09T02:34:00;1.90;;;1.00;;
19509;SDS011;9896;42.486;26.506;2023-10-09T02:36:30;1.50;;;1.10;;
19509;SDS011;9896;42.486;26.506;2023-10-09T02:38:55;2.13;;;1.20;;
19509;SDS011;9896;42.486;26.506;2023-10-09T02:41:21;2.23;;;1.30;;
19509;SDS011;9896;42.486;26.506;2023-10-09T02:43:48;5.43;;;1.13;;
19509;SDS011;9896;42.486;26.506;2023-10-09T02:46:16;1.77;;;1.20;;
19509;SDS011;9896;42.486;26.506;2023-10-09T02:48:45;2.67;;;1.00;;
19509;SDS011;9896;42.486;26.506;2023-10-09T02:51:21;3.07;;;1.30;;
19509;SDS011;9896;42.486;26.506;2023-10-09T02:53:49;1.30;;;1.00;;
19509;SDS011;9896;42.486;26.506;2023-10-09T02:56:15;1.77;;;1.40;;
19509;SDS011;9896;42.486;26.506;2023-10-09T02:58:43;6.60;;;1.27;;
19509;SDS011;9896;42.486;26.506;2023-10-09T03:01:11;2.07;;;1.53;;
19509;SDS011;9896;42.486;26.506;2023-10-09T03:03:39;2.63;;;1.20;;
19509;SDS011;9896;42.486;26.506;2023-10-09T03:06:06;1.43;;;1.10;;
19509;SDS011;9896;42.486;26.506;2023-10-09T03:08:38;1.00;;;0.90;;
19509;SDS011;9896;42.486;26.506;2023-10-09T03:11:04;2.27;;;1.10;;
19509;SDS011;9896;42.486;26.506;2023-10-09T03:13:31;1.13;;;0.90;;
19509;SDS011;9896;42.486;26.506;2023-10-09T03:15:58;5.03;;;1.10;;
19509;SDS011;9896;42.486;26.506;2023-10-09T03:18:23;1.53;;;0.90;;
19509;SDS011;9896;42.486;26.506;2023-10-09T03:20:49;2.73;;;1.00;;
19509;SDS011;9896;42.486;26.506;2023-10-09T03:23:15;1.10;;;1.00;;
19509;SDS011;9896;42.486;26.506;2023-10-09T03:25:41;1.70;;;1.30;;
19509;SDS011;9896;42.486;26.506;2023-10-09T03:28:10;1.73;;;1.20;;
19509;SDS011;9896;42.486;26.506;2023-10-09T03:30:36;1.17;;;0.90;;
19509;SDS011;9896;42.486;26.506;2023-10-09T03:33:02;2.10;;;1.23;;
19509;SDS011;9896;42.486;26.506;2023-10-09T03:35:29;3.00;;;1.20;;
19509;SDS011;9896;42.486;26.506;2023-10-09T03:37:58;2.50;;;1.37;;
19509;SDS011;9896;42.486;26.506;2023-10-09T03:40:45;2.60;;;1.10;;
19509;SDS011;9896;42.486;26.506;2023-10-09T03:43:13;2.07;;;1.50;;
19509;SDS011;9896;42.486;26.506;2023-10-09T03:45:39;2.07;;;1.20;;
19509;SDS011;9896;42.486;26.506;2023-10-09T03:48:17;1.80;;;1.17;;
19509;SDS011;9896;42.486;26.506;2023-10-09T03:50:48;1.30;;;1.13;;
19509;SDS011;9896;42.486;26.506;2023-10-09T03:53:14;3.93;;;1.40;;
19509;SDS011;9896;42.486;26.506;2023-10-09T03:55:39;4.50;;;1.30;;
19509;SDS011;9896;42.486;26.506;2023-10-09T03:58:08;2.27;;;1.40;;
19509;SDS011;9896;42.486;26.506;2023-10-09T04:00:37;2.13;;;1.60;;
19509;SDS011;9896;42.486;26.506;2023-10-09T04:03:14;3.17;;;1.30;;
19509;SDS011;9896;42.486;26.506;2023-10-09T04:05:40;1.97;;;1.27;;
19509;SDS011;9896;42.486;26.506;2023-10-09T04:08:08;1.93;;;1.30;;
19509;SDS011;9896;42.486;26.506;2023-10-09T04:10:41;2.73;;;1.67;;
19509;SDS011;9896;42.486;26.506;2023-10-09T04:13:16;2.67;;;1.30;;
19509;SDS011;9896;42.486;26.506;2023-10-09T04:15:47;3.03;;;1.10;;
19509;SDS011;9896;42.486;26.506;2023-10-09T04:18:14;3.63;;;1.50;;
19509;SDS011;9896;42.486;26.506;2023-10-09T04:20:41;4.13;;;1.70;;
19509;SDS011;9896;42.486;26.506;2023-10-09T04:23:32;1.57;;;1.23;;
19509;SDS011;9896;42.486;26.506;2023-10-09T04:26:17;1.47;;;1.33;;
19509;SDS011;9896;42.486;26.506;2023-10-09T04:28:45;2.67;;;1.73;;
19509;SDS011;9896;42.486;26.506;2023-10-09T04:31:16;7.13;;;1.77;;
19509;SDS011;9896;42.486;26.506;2023-10-09T04:33:46;3.17;;;2.20;;
19509;SDS011;9896;42.486;26.506;2023-10-09T04:36:19;4.17;;;1.80;;
19509;SDS011;9896;42.486;26.506;2023-10-09T04:38:44;3.20;;;1.67;;
19509;SDS011;9896;42.486;26.506;2023-10-09T04:41:25;2.13;;;1.60;;
19509;SDS011;9896;42.486;26.506;2023-10-09T04:43:57;2.47;;;1.80;;
19509;SDS011;9896;42.486;26.506;2023-10-09T04:46:43;5.60;;;1.67;;
19509;SDS011;9896;42.486;26.506;2023-10-09T04:49:09;4.37;;;1.70;;
19509;SDS011;9896;42.486;26.506;2023-10-09T04:51:52;6.00;;;2.07;;
19509;SDS011;9896;42.486;26.506;2023-10-09T04:54:31;1.50;;;1.40;;
19509;SDS011;9896;42.486;26.506;2023-10-09T04:57:25;3.60;;;1.80;;
19509;SDS011;9896;42.486;26.506;2023-10-09T04:59:51;2.57;;;1.70;;
19509;SDS011;9896;42.486;26.506;2023-10-09T05:02:17;5.00;;;2.10;;
19509;SDS011;9896;42.486;26.506;2023-10-09T05:04:45;3.33;;;1.90;;
19509;SDS011;9896;42.486;26.506;2023-10-09T05:07:13;4.03;;;1.60;;
19509;SDS011;9896;42.486;26.506;2023-10-09T05:09:57;3.30;;;1.90;;
19509;SDS011;9896;42.486;26.506;2023-10-09T05:12:33;3.17;;;2.00;;
19509;SDS011;9896;42.486;26.506;2023-10-09T05:14:59;2.03;;;1.47;;
19509;SDS011;9896;42.486;26.506;2023-10-09T05:17:37;2.93;;;1.53;;
19509;SDS011;9896;42.486;26.506;2023-10-09T05:20:04;4.80;;;1.63;;
19509;SDS011;9896;42.486;26.506;2023-10-09T05:22:48;2.73;;;1.57;;
19509;SDS011;9896;42.486;26.506;2023-10-09T05:25:25;4.80;;;1.43;;
19509;SDS011;9896;42.486;26.506;2023-10-09T05:28:11;5.10;;;2.23;;
19509;SDS011;9896;42.486;26.506;2023-10-09T05:30:55;3.43;;;1.60;;
19509;SDS011;9896;42.486;26.506;2023-10-09T05:33:32;2.00;;;1.27;;
19509;SDS011;9896;42.486;26.506;2023-10-09T05:36:00;3.40;;;1.40;;
19509;SDS011;9896;42.486;26.506;2023-10-09T05:38:44;2.67;;;1.60;;
19509;SDS011;9896;42.486;26.506;2023-10-09T05:41:12;4.07;;;1.77;;
19509;SDS011;9896;42.486;26.506;2023-10-09T05:43:56;3.70;;;1.40;;
19509;SDS011;9896;42.486;26.506;2023-10-09T05:46:40;2.17;;;1.50;;
19509;SDS011;9896;42.486;26.506;2023-10-09T05:49:25;2.17;;;1.27;;
19509;SDS011;9896;42.486;26.506;2023-10-09T05:52:10;3.50;;;1.57;;
19509;SDS011;9896;42.486;26.506;2023-10-09T05:54:54;2.07;;;1.43;;
19509;SDS011;9896;42.486;26.506;2023-10-09T05:57:39;4.43;;;1.77;;
19509;SDS011;9896;42.486;26.506;2023-10-09T06:00:25;1.70;;;1.40;;
19509;SDS011;9896;42.486;26.506;2023-10-09T06:03:09;2.60;;;1.73;;
19509;SDS011;9896;42.486;26.506;2023-10-09T06:05:46;5.73;;;2.00;;
19509;SDS011;9896;42.486;26.506;2023-10-09T06:08:21;2.90;;;1.70;;
19509;SDS011;9896;42.486;26.506;2023-10-09T06:10:53;3.27;;;1.63;;
19509;SDS011;9896;42.486;26.506;2023-10-09T06:13:50;3.67;;;1.60;;
19509;SDS011;9896;42.486;26.506;2023-10-09T06:16:27;2.37;;;1.70;;
19509;SDS011;9896;42.486;26.506;2023-10-09T06:19:28;2.17;;;1.57;;
19509;SDS011;9896;42.486;26.506;2023-10-09T06:21:54;9.40;;;2.40;;
19509;SDS011;9896;42.486;26.506;2023-10-09T06:24:29;2.73;;;1.83;;
19509;SDS011;9896;42.486;26.506;2023-10-09T06:27:13;1.97;;;1.37;;
19509;SDS011;9896;42.486;26.506;2023-10-09T06:29:49;2.93;;;1.27;;
19509;SDS011;9896;42.486;26.506;2023-10-09T06:32:15;3.13;;;1.40;;
19509;SDS011;9896;42.486;26.506;2023-10-09T06:34:52;2.63;;;1.50;;
19509;SDS011;9896;42.486;26.506;2023-10-09T06:37:21;3.03;;;1.80;;
19509;SDS011;9896;42.486;26.506;2023-10-09T06:39:50;4.17;;;1.70;;
19509;SDS011;9896;42.486;26.506;2023-10-09T06:42:15;3.63;;;1.70;;
19509;SDS011;9896;42.486;26.506;2023-10-09T06:45:09;5.27;;;1.67;;
19509;SDS011;9896;42.486;26.506;2023-10-09T06:47:42;2.97;;;1.80;;
19509;SDS011;9896;42.486;26.506;2023-10-09T06:50:18;5.40;;;1.37;;
19509;SDS011;9896;42.486;26.506;2023-10-09T06:52:47;5.43;;;1.60;;
19509;SDS011;9896;42.486;26.506;2023-10-09T06:55:22;4.33;;;2.10;;
19509;SDS011;9896;42.486;26.506;2023-10-09T06:57:58;3.00;;;1.70;;
19509;SDS011;9896;42.486;26.506;2023-10-09T07:00:29;3.77;;;2.73;;
19509;SDS011;9896;42.486;26.506;2023-10-09T07:03:13;4.50;;;2.00;;
19509;SDS011;9896;42.486;26.506;2023-10-09T07:05:39;2.17;;;1.60;;
19509;SDS011;9896;42.486;26.506;2023-10-09T07:08:30;3.10;;;1.70;;
19509;SDS011;9896;42.486;26.506;2023-10-09T07:11:02;4.67;;;1.87;;
19509;SDS011;9896;42.486;26.506;2023-10-09T07:13:46;6.23;;;2.00;;
19509;SDS011;9896;42.486;26.506;2023-10-09T07:16:20;6.13;;;2.27;;
19509;SDS011;9896;42.486;26.506;2023-10-09T07:19:04;6.33;;;2.07;;
19509;SDS011;9896;42.486;26.506;2023-10-09T07:21:44;2.53;;;1.37;;
19509;SDS011;9896;42.486;26.506;2023-10-09T07:24:17;2.53;;;1.77;;
19509;SDS011;9896;42.486;26.506;2023-10-09T07:26:46;4.53;;;1.80;;
19509;SDS011;9896;42.486;26.506;2023-10-09T07:29:18;4.20;;;1.87;;
19509;SDS011;9896;42.486;26.506;2023-10-09T07:31:48;4.30;;;1.50;;
19509;SDS011;9896;42.486;26.506;2023-10-09T07:34:23;3.17;;;1.73;;
19509;SDS011;9896;42.486;26.506;2023-10-09T07:37:17;3.30;;;1.90;;
19509;SDS011;9896;42.486;26.506;2023-10-09T07:39:44;2.23;;;1.80;;
19509;SDS011;9896;42.486;26.506;2023-10-09T07:42:15;4.03;;;2.13;;
19509;SDS011;9896;42.486;26.506;2023-10-09T07:44:44;4.47;;;2.03;;
19509;SDS011;9896;42.486;26.506;2023-10-09T07:47:18;6.10;;;2.63;;
19509;SDS011;9896;42.486;26.506;2023-10-09T07:50:02;4.17;;;1.90;;
19509;SDS011;9896;42.486;26.506;2023-10-09T07:52:29;4.83;;;2.30;;
19509;SDS011;9896;42.486;26.506;2023-10-09T07:54:54;5.17;;;2.50;;
19509;SDS011;9896;42.486;26.506;2023-10-09T07:57:26;6.93;;;2.60;;
19509;SDS011;9896;42.486;26.506;2023-10-09T07:59:54;4.30;;;2.60;;
19509;SDS011;9896;42.486;26.506;2023-10-09T08:02:37;5.10;;;2.70;;
19509;SDS011;9896;42.486;26.506;2023-10-09T08:05:04;5.33;;;2.57;;
19509;SDS011;9896;42.486;26.506;2023-10-09T08:07:32;2.10;;;1.47;;
19509;SDS011;9896;42.486;26.506;2023-10-09T08:10:03;4.63;;;1.70;;
19509;SDS011;9896;42.486;26.506;2023-10-09T08:12:44;2.50;;;1.43;;
19509;SDS011;9896;42.486;26.506;2023-10-09T08:15:10;2.57;;;1.40;;
19509;SDS011;9896;42.486;26.506;2023-10-09T08:17:51;2.73;;;1.70;;
19509;SDS011;9896;42.486;26.506;2023-10-09T08:20:22;7.17;;;1.73;;
19509;SDS011;9896;42.486;26.506;2023-10-09T08:22:51;8.37;;;1.73;;
19509;SDS011;9896;42.486;26.506;2023-10-09T08:25:17;6.20;;;2.00;;
19509;SDS011;9896;42.486;26.506;2023-10-09T08:27:53;2.87;;;2.10;;
19509;SDS011;9896;42.486;26.506;2023-10-09T08:30:23;4.67;;;1.50;;
19509;SDS011;9896;42.486;26.506;2023-10-09T08:32:51;5.33;;;2.10;;
19509;SDS011;9896;42.486;26.506;2023-10-09T08:35:31;6.53;;;1.90;;
19509;SDS011;9896;42.486;26.506;2023-10-09T08:38:01;6.17;;;2.50;;
19509;SDS011;9896;42.486;26.506;2023-10-09T08:40:33;3.97;;;1.90;;
19509;SDS011;9896;42.486;26.506;2023-10-09T08:43:23;3.43;;;2.00;;
19509;SDS011;9896;42.486;26.506;2023-10-09T08:45:55;6.03;;;2.40;;
19509;SDS011;9896;42.486;26.506;2023-10-09T08:48:26;4.97;;;1.90;;
19509;SDS011;9896;42.486;26.506;2023-10-09T08:50:53;3.30;;;2.10;;
19509;SDS011;9896;42.486;26.506;2023-10-09T08:53:22;8.33;;;2.03;;
19509;SDS011;9896;42.486;26.506;2023-10-09T08:55:49;6.97;;;2.20;;
19509;SDS011;9896;42.486;26.506;2023-10-09T08:58:14;3.30;;;2.37;;
19509;SDS011;9896;42.486;26.506;2023-10-09T09:01:00;6.37;;;2.37;;
19509;SDS011;9896;42.486;26.506;2023-10-09T09:03:26;2.97;;;1.80;;
19509;SDS011;9896;42.486;26.506;2023-10-09T09:05:58;2.97;;;1.63;;
19509;SDS011;9896;42.486;26.506;2023-10-09T09:08:30;1.97;;;1.53;;
19509;SDS011;9896;42.486;26.506;2023-10-09T09:10:59;8.10;;;2.27;;
19509;SDS011;9896;42.486;26.506;2023-10-09T09:13:37;2.90;;;1.70;;
19509;SDS011;9896;42.486;26.506;2023-10-09T09:16:02;4.10;;;1.80;;
19509;SDS011;9896;42.486;26.506;2023-10-09T09:18:28;2.70;;;1.67;;
19509;SDS011;9896;42.486;26.506;2023-10-09T09:21:02;2.00;;;1.53;;
19509;SDS011;9896;42.486;26.506;2023-10-09T09:23:52;7.40;;;1.93;;
19509;SDS011;9896;42.486;26.506;2023-10-09T09:26:20;6.50;;;2.03;;
19509;SDS011;9896;42.486;26.506;2023-10-09T09:28:59;3.23;;;1.43;;
19509;SDS011;9896;42.486;26.506;2023-10-09T09:31:25;3.80;;;2.20;;
19509;SDS011;9896;42.486;26.506;2023-10-09T09:33:59;6.77;;;1.60;;
19509;SDS011;9896;42.486;26.506;2023-10-09T09:36:28;3.63;;;2.10;;
19509;SDS011;9896;42.486;26.506;2023-10-09T09:38:58;4.57;;;1.60;;
19509;SDS011;9896;42.486;26.506;2023-10-09T09:41:26;3.77;;;1.60;;
19509;SDS011;9896;42.486;26.506;2023-10-09T09:43:55;2.60;;;1.70;;
19509;SDS011;9896;42.486;26.506;2023-10-09T09:46:27;3.80;;;2.20;;
19509;SDS011;9896;42.486;26.506;2023-10-09T09:49:00;4.90;;;2.00;;
19509;SDS011;9896;42.486;26.506;2023-10-09T09:51:25;6.47;;;1.87;;
19509;SDS011;9896;42.486;26.506;2023-10-09T09:53:54;4.77;;;1.60;;
19509;SDS011;9896;42.486;26.506;2023-10-09T09:56:19;5.27;;;1.80;;
19509;SDS011;9896;42.486;26.506;2023-10-09T09:58:46;5.80;;;1.60;;
19509;SDS011;9896;42.486;26.506;2023-10-09T10:01:18;2.17;;;1.70;;
19509;SDS011;9896;42.486;26.506;2023-10-09T10:04:00;4.53;;;1.73;;
19509;SDS011;9896;42.486;26.506;2023-10-09T10:06:27;4.60;;;1.40;;
19509;SDS011;9896;42.486;26.506;2023-10-09T10:08:54;4.47;;;1.67;;
19509;SDS011;9896;42.486;26.506;2023-10-09T10:14:06;3.87;;;2.00;;
19509;SDS011;9896;42.486;26.506;2023-10-09T10:16:59;3.47;;;1.50;;
19509;SDS011;9896;42.486;26.506;2023-10-09T10:19:21;4.10;;;1.57;;
19509;SDS011;9896;42.486;26.506;2023-10-09T10:21:47;2.93;;;1.57;;
19509;SDS011;9896;42.486;26.506;2023-10-09T10:27:16;3.67;;;1.30;;
19509;SDS011;9896;42.486;26.506;2023-10-09T10:35:16;2.53;;;1.60;;
19509;SDS011;9896;42.486;26.506;2023-10-09T10:37:42;1.80;;;1.23;;
19509;SDS011;9896;42.486;26.506;2023-10-09T10:40:30;1.97;;;1.20;;
19509;SDS011;9896;42.486;26.506;2023-10-09T10:43:20;3.57;;;1.43;;
19509;SDS011;9896;42.486;26.506;2023-10-09T10:46:12;2.90;;;1.50;;
19509;SDS011;9896;42.486;26.506;2023-10-09T10:49:03;5.40;;;1.50;;
19509;SDS011;9896;42.486;26.506;2023-10-09T10:51:40;3.87;;;1.73;;
19509;SDS011;9896;42.486;26.506;2023-10-09T10:54:06;4.03;;;1.50;;
19509;SDS011;9896;42.486;26.506;2023-10-09T10:57:13;4.93;;;1.50;;
19509;SDS011;9896;42.486;26.506;2023-10-09T10:59:45;3.17;;;1.63;;
19509;SDS011;9896;42.486;26.506;2023-10-09T11:02:10;4.33;;;1.50;;
19509;SDS011;9896;42.486;26.506;2023-10-09T11:04:36;2.63;;;1.37;;
19509;SDS011;9896;42.486;26.506;2023-10-09T11:07:02;1.83;;;1.37;;
19509;SDS011;9896;42.486;26.506;2023-10-09T11:09:47;4.17;;;1.60;;
19509;SDS011;9896;42.486;26.506;2023-10-09T11:12:31;3.23;;;1.47;;
19509;SDS011;9896;42.486;26.506;2023-10-09T11:15:15;3.87;;;1.40;;
19509;SDS011;9896;42.486;26.506;2023-10-09T11:18:03;2.73;;;1.40;;
19509;SDS011;9896;42.486;26.506;2023-10-09T11:20:55;5.30;;;1.40;;
19509;SDS011;9896;42.486;26.506;2023-10-09T11:23:27;2.93;;;1.53;;
19509;SDS011;9896;42.486;26.506;2023-10-09T11:25:59;1.90;;;1.37;;
19509;SDS011;9896;42.486;26.506;2023-10-09T11:28:43;1.57;;;1.27;;
19509;SDS011;9896;42.486;26.506;2023-10-09T11:31:14;4.23;;;1.50;;
19509;SDS011;9896;42.486;26.506;2023-10-09T11:33:52;2.53;;;1.63;;
19509;SDS011;9896;42.486;26.506;2023-10-09T11:36:19;2.00;;;1.30;;
19509;SDS011;9896;42.486;26.506;2023-10-09T11:38:54;1.63;;;1.07;;
19509;SDS011;9896;42.486;26.506;2023-10-09T11:41:39;5.90;;;1.50;;
19509;SDS011;9896;42.486;26.506;2023-10-09T11:44:06;3.63;;;1.50;;
19509;SDS011;9896;42.486;26.506;2023-10-09T11:46:31;4.87;;;1.90;;
19509;SDS011;9896;42.486;26.506;2023-10-09T11:49:13;2.37;;;1.60;;
19509;SDS011;9896;42.486;26.506;2023-10-09T11:51:44;3.60;;;1.30;;
19509;SDS011;9896;42.486;26.506;2023-10-09T11:54:33;2.97;;;1.27;;
19509;SDS011;9896;42.486;26.506;2023-10-09T11:56:59;2.50;;;1.37;;
19509;SDS011;9896;42.486;26.506;2023-10-09T11:59:26;4.47;;;1.67;;
19509;SDS011;9896;42.486;26.506;2023-10-09T12:01:52;4.03;;;1.37;;
19509;SDS011;9896;42.486;26.506;2023-10-09T12:04:18;5.47;;;2.00;;
19509;SDS011;9896;42.486;26.506;2023-10-09T12:06:44;5.07;;;1.90;;
19509;SDS011;9896;42.486;26.506;2023-10-09T12:09:09;4.63;;;1.40;;
19509;SDS011;9896;42.486;26.506;2023-10-09T12:11:42;4.47;;;2.00;;
19509;SDS011;9896;42.486;26.506;2023-10-09T12:14:07;4.17;;;1.57;;
19509;SDS011;9896;42.486;26.506;2023-10-09T12:16:33;4.83;;;1.80;;
19509;SDS011;9896;42.486;26.506;2023-10-09T12:18:58;4.60;;;1.87;;
19509;SDS011;9896;42.486;26.506;2023-10-09T12:21:24;2.40;;;1.20;;
19509;SDS011;9896;42.486;26.506;2023-10-09T12:23:53;3.90;;;1.50;;
19509;SDS011;9896;42.486;26.506;2023-10-09T12:26:22;6.27;;;1.57;;
19509;SDS011;9896;42.486;26.506;2023-10-09T12:28:48;5.67;;;1.63;;
19509;SDS011;9896;42.486;26.506;2023-10-09T12:31:15;8.63;;;2.67;;
19509;SDS011;9896;42.486;26.506;2023-10-09T12:33:40;6.07;;;2.40;;
19509;SDS011;9896;42.486;26.506;2023-10-09T12:36:06;4.27;;;1.77;;
19509;SDS011;9896;42.486;26.506;2023-10-09T12:38:42;4.43;;;1.60;;
19509;SDS011;9896;42.486;26.506;2023-10-09T12:41:11;6.23;;;1.70;;
19509;SDS011;9896;42.486;26.506;2023-10-09T12:44:06;2.57;;;1.40;;
19509;SDS011;9896;42.486;26.506;2023-10-09T12:46:37;4.87;;;1.57;;
19509;SDS011;9896;42.486;26.506;2023-10-09T12:49:02;3.57;;;1.70;;
19509;SDS011;9896;42.486;26.506;2023-10-09T12:51:28;3.57;;;1.90;;
19509;SDS011;9896;42.486;26.506;2023-10-09T12:53:56;4.93;;;1.63;;
19509;SDS011;9896;42.486;26.506;2023-10-09T12:56:26;2.23;;;1.50;;
19509;SDS011;9896;42.486;26.506;2023-10-09T12:59:01;5.90;;;1.57;;
19509;SDS011;9896;42.486;26.506;2023-10-09T13:01:29;3.60;;;1.47;;
19509;SDS011;9896;42.486;26.506;2023-10-09T13:04:00;3.53;;;1.50;;
19509;SDS011;9896;42.486;26.506;2023-10-09T13:06:25;2.30;;;2.10;;
19509;SDS011;9896;42.486;26.506;2023-10-09T13:08:51;5.70;;;1.87;;
19509;SDS011;9896;42.486;26.506;2023-10-09T13:11:17;3.50;;;1.70;;
19509;SDS011;9896;42.486;26.506;2023-10-09T13:13:42;4.83;;;1.37;;
19509;SDS011;9896;42.486;26.506;2023-10-09T13:16:16;3.90;;;2.00;;
19509;SDS011;9896;42.486;26.506;2023-10-09T13:18:53;2.27;;;1.63;;
19509;SDS011;9896;42.486;26.506;2023-10-09T13:21:23;4.10;;;2.00;;
19509;SDS011;9896;42.486;26.506;2023-10-09T13:23:48;5.77;;;1.90;;
19509;SDS011;9896;42.486;26.506;2023-10-09T13:26:20;4.80;;;1.90;;
19509;SDS011;9896;42.486;26.506;2023-10-09T13:29:01;4.37;;;1.63;;
19509;SDS011;9896;42.486;26.506;2023-10-09T13:31:27;4.00;;;1.87;;
19509;SDS011;9896;42.486;26.506;2023-10-09T13:33:57;4.17;;;1.67;;
19509;SDS011;9896;42.486;26.506;2023-10-09T13:36:27;4.13;;;1.63;;
19509;SDS011;9896;42.486;26.506;2023-10-09T13:38:55;8.10;;;2.30;;
19509;SDS011;9896;42.486;26.506;2023-10-09T13:41:31;5.90;;;1.77;;
19509;SDS011;9896;42.486;26.506;2023-10-09T13:43:56;4.13;;;1.80;;
19509;SDS011;9896;42.486;26.506;2023-10-09T13:46:22;5.27;;;2.33;;
19509;SDS011;9896;42.486;26.506;2023-10-09T13:48:49;4.93;;;1.83;;
19509;SDS011;9896;42.486;26.506;2023-10-09T13:51:15;4.30;;;1.97;;
19509;SDS011;9896;42.486;26.506;2023-10-09T13:53:43;8.90;;;2.43;;
19509;SDS011;9896;42.486;26.506;2023-10-09T13:56:19;2.83;;;1.70;;
19509;SDS011;9896;42.486;26.506;2023-10-09T13:58:48;8.07;;;2.30;;
19509;SDS011;9896;42.486;26.506;2023-10-09T14:01:15;3.97;;;2.50;;
19509;SDS011;9896;42.486;26.506;2023-10-09T14:03:56;7.73;;;2.70;;
19509;SDS011;9896;42.486;26.506;2023-10-09T14:06:23;6.20;;;2.53;;
19509;SDS011;9896;42.486;26.506;2023-10-09T14:08:59;5.57;;;2.30;;
19509;SDS011;9896;42.486;26.506;2023-10-09T14:11:27;5.57;;;2.80;;
19509;SDS011;9896;42.486;26.506;2023-10-09T14:13:53;5.37;;;2.80;;
19509;SDS011;9896;42.486;26.506;2023-10-09T14:16:18;5.93;;;3.70;;
19509;SDS011;9896;42.486;26.506;2023-10-09T14:18:56;9.03;;;4.33;;
19509;SDS011;9896;42.486;26.506;2023-10-09T14:21:26;8.37;;;4.10;;
19509;SDS011;9896;42.486;26.506;2023-10-09T14:23:55;10.90;;;4.30;;
19509;SDS011;9896;42.486;26.506;2023-10-09T14:26:23;7.50;;;4.23;;
19509;SDS011;9896;42.486;26.506;2023-10-09T14:28:48;11.20;;;4.00;;
19509;SDS011;9896;42.486;26.506;2023-10-09T14:31:15;8.70;;;3.30;;
19509;SDS011;9896;42.486;26.506;2023-10-09T14:33:48;6.40;;;3.50;;
19509;SDS011;9896;42.486;26.506;2023-10-09T14:36:16;7.90;;;3.20;;
19509;SDS011;9896;42.486;26.506;2023-10-09T14:38:43;6.43;;;3.90;;
19509;SDS011;9896;42.486;26.506;2023-10-09T14:41:12;7.27;;;4.27;;
19509;SDS011;9896;42.486;26.506;2023-10-09T14:43:37;7.67;;;3.47;;
19509;SDS011;9896;42.486;26.506;2023-10-09T14:46:03;7.63;;;4.07;;
19509;SDS011;9896;42.486;26.506;2023-10-09T14:48:36;8.47;;;3.90;;
19509;SDS011;9896;42.486;26.506;2023-10-09T14:51:02;8.57;;;3.70;;
19509;SDS011;9896;42.486;26.506;2023-10-09T14:53:32;11.27;;;3.50;;
19509;SDS011;9896;42.486;26.506;2023-10-09T14:55:59;8.47;;;3.97;;
19509;SDS011;9896;42.486;26.506;2023-10-09T14:58:26;13.93;;;5.50;;
19509;SDS011;9896;42.486;26.506;2023-10-09T15:00:54;7.53;;;4.10;;
19509;SDS011;9896;42.486;26.506;2023-10-09T15:03:19;9.87;;;4.20;;
19509;SDS011;9896;42.486;26.506;2023-10-09T15:05:47;8.90;;;3.80;;
19509;SDS011;9896;42.486;26.506;2023-10-09T15:08:13;9.67;;;3.87;;
19509;SDS011;9896;42.486;26.506;2023-10-09T15:10:48;6.43;;;3.93;;
19509;SDS011;9896;42.486;26.506;2023-10-09T15:13:14;6.07;;;3.90;;
19509;SDS011;9896;42.486;26.506;2023-10-09T15:15:41;9.93;;;3.53;;
19509;SDS011;9896;42.486;26.506;2023-10-09T15:18:07;6.00;;;3.20;;
19509;SDS011;9896;42.486;26.506;2023-10-09T15:20:34;7.80;;;3.53;;
19509;SDS011;9896;42.486;26.506;2023-10-09T15:23:00;9.67;;;3.47;;
19509;SDS011;9896;42.486;26.506;2023-10-09T15:25:26;6.10;;;3.73;;
19509;SDS011;9896;42.486;26.506;2023-10-09T15:27:52;13.40;;;4.23;;
19509;SDS011;9896;42.486;26.506;2023-10-09T15:30:17;12.03;;;4.30;;
19509;SDS011;9896;42.486;26.506;2023-10-09T15:32:43;7.70;;;3.90;;